LVCTD SADL-SADF
Flight info
| Callsign | LVCTD |
|---|---|
| Flight time | 0h 22m |
| Altitude | 1000 |
| Route | DCT |
| Aircraft | B429/L-SDVG/S |
Departure
| Time | 2026-04-25 04:54 |
|---|---|
| Airport | La Plata Airport (SADL) |
Arrival
| Time | 2026-04-25 05:16 |
|---|---|
| Airport | San Fernando Airport (SADF) |
| Time | Latitude | Longitude | Altitude | Speed | Heading |
|---|---|---|---|---|---|
| 2026-04-25 04:48 | -34.96076 | -57.89348 | 76 ft | 0 kts | 322° |
| 2026-04-25 04:52 | -34.96074 | -57.89350 | 77 ft | 5 kts | 332° |
| 2026-04-25 04:53 | -34.95999 | -57.89328 | 94 ft | 11 kts | 55° |
| 2026-04-25 04:53 | -34.95982 | -57.89312 | 76 ft | 0 kts | 43° |
| 2026-04-25 04:54 | -34.95864 | -57.89206 | 233 ft | 52 kts | 31° |
| 2026-04-25 04:54 | -34.95305 | -57.89275 | 452 ft | 108 kts | 340° |
| 2026-04-25 04:54 | -34.94527 | -57.89605 | 708 ft | 123 kts | 336° |
| 2026-04-25 04:54 | -34.93753 | -57.90040 | 992 ft | 128 kts | 327° |
| 2026-04-25 04:55 | -34.92981 | -57.90710 | 1060 ft | 146 kts | 316° |
| 2026-04-25 04:55 | -34.92240 | -57.91633 | 1034 ft | 156 kts | 312° |
| 2026-04-25 04:55 | -34.91471 | -57.92603 | 1020 ft | 160 kts | 315° |
| 2026-04-25 04:55 | -34.90675 | -57.93523 | 1052 ft | 154 kts | 316° |
| 2026-04-25 04:56 | -34.89915 | -57.94398 | 1056 ft | 147 kts | 315° |
| 2026-04-25 04:56 | -34.89218 | -57.95262 | 1046 ft | 142 kts | 312° |
| 2026-04-25 04:56 | -34.88554 | -57.96164 | 1042 ft | 141 kts | 310° |
| 2026-04-25 04:56 | -34.87941 | -57.97074 | 1041 ft | 140 kts | 307° |
| 2026-04-25 04:57 | -34.87353 | -57.98025 | 1037 ft | 141 kts | 305° |
| 2026-04-25 04:57 | -34.86792 | -57.99002 | 1041 ft | 142 kts | 303° |
| 2026-04-25 04:57 | -34.86251 | -58.00013 | 1051 ft | 140 kts | 301° |
| 2026-04-25 04:57 | -34.85759 | -58.01025 | 1052 ft | 140 kts | 298° |
| 2026-04-25 04:58 | -34.85295 | -58.02072 | 1046 ft | 142 kts | 296° |
| 2026-04-25 04:58 | -34.84833 | -58.03169 | 1041 ft | 147 kts | 296° |
| 2026-04-25 04:58 | -34.84366 | -58.04280 | 1045 ft | 149 kts | 296° |
| 2026-04-25 04:58 | -34.83894 | -58.05401 | 1052 ft | 148 kts | 296° |
| 2026-04-25 04:59 | -34.83432 | -58.06523 | 1056 ft | 147 kts | 295° |
| 2026-04-25 04:59 | -34.82987 | -58.07645 | 1045 ft | 148 kts | 295° |
| 2026-04-25 04:59 | -34.82545 | -58.08778 | 1041 ft | 149 kts | 294° |
| 2026-04-25 04:59 | -34.82110 | -58.09911 | 1041 ft | 148 kts | 294° |
| 2026-04-25 05:00 | -34.81682 | -58.11046 | 1040 ft | 147 kts | 296° |
| 2026-04-25 05:00 | -34.80969 | -58.11962 | 1048 ft | 149 kts | 320° |
| 2026-04-25 05:00 | -34.80138 | -58.12679 | 1058 ft | 146 kts | 324° |
| 2026-04-25 05:00 | -34.79382 | -58.13512 | 1042 ft | 148 kts | 314° |
| 2026-04-25 05:01 | -34.78641 | -58.14393 | 1041 ft | 149 kts | 315° |
| 2026-04-25 05:01 | -34.77901 | -58.15271 | 1051 ft | 148 kts | 315° |
| 2026-04-25 05:01 | -34.77168 | -58.16145 | 1055 ft | 148 kts | 315° |
| 2026-04-25 05:01 | -34.76434 | -58.17022 | 1054 ft | 147 kts | 314° |
| 2026-04-25 05:02 | -34.75705 | -58.17895 | 1045 ft | 148 kts | 315° |
| 2026-04-25 05:02 | -34.74964 | -58.18772 | 1042 ft | 149 kts | 315° |
| 2026-04-25 05:02 | -34.74226 | -58.19647 | 1045 ft | 148 kts | 315° |
| 2026-04-25 05:02 | -34.73485 | -58.20528 | 1050 ft | 147 kts | 315° |
| 2026-04-25 05:03 | -34.72762 | -58.21388 | 1054 ft | 147 kts | 315° |
| 2026-04-25 05:03 | -34.72029 | -58.22258 | 1051 ft | 148 kts | 315° |
| 2026-04-25 05:03 | -34.71280 | -58.23140 | 1053 ft | 148 kts | 315° |
| 2026-04-25 05:03 | -34.70542 | -58.24015 | 1057 ft | 147 kts | 315° |
| 2026-04-25 05:04 | -34.69815 | -58.24882 | 1050 ft | 147 kts | 315° |
| 2026-04-25 05:04 | -34.69070 | -58.25763 | 1039 ft | 149 kts | 315° |
| 2026-04-25 05:04 | -34.68333 | -58.26633 | 1043 ft | 148 kts | 315° |
| 2026-04-25 05:04 | -34.67596 | -58.27504 | 1047 ft | 148 kts | 315° |
| 2026-04-25 05:05 | -34.66865 | -58.28367 | 1052 ft | 147 kts | 315° |
| 2026-04-25 05:05 | -34.66124 | -58.29243 | 1056 ft | 147 kts | 315° |
| 2026-04-25 05:05 | -34.65393 | -58.30109 | 1049 ft | 147 kts | 315° |
| 2026-04-25 05:05 | -34.64654 | -58.30979 | 1039 ft | 149 kts | 315° |
| 2026-04-25 05:06 | -34.63911 | -58.31854 | 1041 ft | 148 kts | 315° |
| 2026-04-25 05:06 | -34.63170 | -58.32729 | 1044 ft | 148 kts | 315° |
| 2026-04-25 05:06 | -34.62434 | -58.33598 | 1047 ft | 147 kts | 315° |
| 2026-04-25 05:06 | -34.61695 | -58.34468 | 1051 ft | 147 kts | 315° |
| 2026-04-25 05:07 | -34.60968 | -58.35319 | 1055 ft | 147 kts | 316° |
| 2026-04-25 05:07 | -34.60189 | -58.36139 | 1054 ft | 147 kts | 319° |
| 2026-04-25 05:07 | -34.59399 | -58.36943 | 1041 ft | 149 kts | 319° |
| 2026-04-25 05:07 | -34.58604 | -58.37747 | 1045 ft | 148 kts | 319° |
| 2026-04-25 05:08 | -34.57815 | -58.38548 | 1049 ft | 147 kts | 319° |
| 2026-04-25 05:08 | -34.57038 | -58.39339 | 1052 ft | 147 kts | 319° |
| 2026-04-25 05:08 | -34.56238 | -58.40147 | 1047 ft | 149 kts | 319° |
| 2026-04-25 05:08 | -34.55440 | -58.40951 | 1053 ft | 148 kts | 319° |
| 2026-04-25 05:09 | -34.54654 | -58.41749 | 1057 ft | 147 kts | 319° |
| 2026-04-25 05:09 | -34.53870 | -58.42549 | 1050 ft | 147 kts | 319° |
| 2026-04-25 05:09 | -34.53078 | -58.43349 | 1040 ft | 149 kts | 319° |
| 2026-04-25 05:09 | -34.52284 | -58.44151 | 1045 ft | 148 kts | 319° |
| 2026-04-25 05:10 | -34.51496 | -58.44950 | 1049 ft | 147 kts | 319° |
| 2026-04-25 05:10 | -34.50710 | -58.45747 | 1054 ft | 147 kts | 319° |
| 2026-04-25 05:10 | -34.49931 | -58.46538 | 1055 ft | 148 kts | 319° |
| 2026-04-25 05:10 | -34.49136 | -58.47339 | 1051 ft | 149 kts | 319° |
| 2026-04-25 05:11 | -34.48347 | -58.48135 | 1057 ft | 147 kts | 319° |
| 2026-04-25 05:11 | -34.47558 | -58.48939 | 1049 ft | 147 kts | 319° |
| 2026-04-25 05:11 | -34.46765 | -58.49741 | 1041 ft | 149 kts | 319° |
| 2026-04-25 05:12 | -34.45192 | -58.51332 | 1046 ft | 147 kts | 319° |
| 2026-04-25 05:12 | -34.44391 | -58.52140 | 1041 ft | 149 kts | 319° |
| 2026-04-25 05:12 | -34.43657 | -58.53002 | 1036 ft | 150 kts | 297° |
| 2026-04-25 05:12 | -34.43596 | -58.54212 | 1050 ft | 145 kts | 260° |
| 2026-04-25 05:13 | -34.43779 | -58.55447 | 912 ft | 141 kts | 253° |
| 2026-04-25 05:13 | -34.44060 | -58.56483 | 930 ft | 127 kts | 245° |
| 2026-04-25 05:13 | -34.44418 | -58.57364 | 1094 ft | 101 kts | 234° |
| 2026-04-25 05:13 | -34.44815 | -58.58026 | 1216 ft | 95 kts | 227° |
| 2026-04-25 05:14 | -34.45125 | -58.58682 | 1373 ft | 84 kts | 251° |
| 2026-04-25 05:14 | -34.45100 | -58.59352 | 1530 ft | 79 kts | 287° |
| 2026-04-25 05:14 | -34.44690 | -58.59898 | 1465 ft | 106 kts | 310° |
| 2026-04-25 05:15 | -34.45044 | -58.61283 | 1435 ft | 106 kts | 175° |
| 2026-04-25 05:15 | -34.45506 | -58.60795 | 1582 ft | 91 kts | 94° |
| 2026-04-25 05:15 | -34.45462 | -58.59884 | 1388 ft | 117 kts | 82° |
| 2026-04-25 05:15 | -34.45441 | -58.59001 | 1538 ft | 101 kts | 89° |
| 2026-04-25 05:16 | -34.45255 | -58.58299 | 1718 ft | 78 kts | 32° |
| 2026-04-25 05:16 | -34.44759 | -58.58098 | 1455 ft | 77 kts | 340° |
| 2026-04-25 05:16 | -34.44436 | -58.58422 | 1169 ft | 44 kts | 240° |
| 2026-04-25 05:16 | -34.44553 | -58.58709 | 812 ft | 52 kts | 206° |
| 2026-04-25 05:17 | -34.44868 | -58.58858 | 491 ft | 45 kts | 166° |
| 2026-04-25 05:17 | -34.45134 | -58.58727 | 226 ft | 36 kts | 124° |
| 2026-04-25 05:17 | -34.45191 | -58.58524 | 123 ft | 23 kts | 86° |
| 2026-04-25 05:17 | -34.45155 | -58.58407 | 64 ft | 14 kts | 68° |
| 2026-04-25 05:18 | -34.45097 | -58.58286 | 37 ft | 17 kts | 62° |
| 2026-04-25 05:18 | -34.45049 | -58.58193 | 21 ft | 7 kts | 66° |
| 2026-04-25 05:18 | -34.45028 | -58.58146 | 19 ft | 5 kts | 87° |
| 2026-04-25 05:18 | -34.45030 | -58.58117 | 17 ft | 1 kts | 94° |
| 2026-04-25 05:19 | -34.45029 | -58.58111 | 13 ft | 0 kts | 58° |